Mortons Gap, Kentucky
Current Conditions -  °F | °C
As of 2:55 PM on Tuesday 25 Nov 2014 (Local Time) from K2I0 Reporting Station
Clear Clear  
Wind Chill: 46°   Ceiling: Unl
Heat Index: 46°   Visibility: 10mi
Dew Point: 29°   Wind: 3mph
Humidity: 51%   Direction: 310°NW
Pressure: 30.14"   Gusts: NA
Location:  37.24°N, 87.48°W
Report Text: K2I0 252055Z AUTO 31003KT 10SM CLR 08/M02 A3014 RMK AO2 T00761019
Loading
Personal Weather Stations






























Interactive Weather Map New forecast layout! Learn more

10-Day Weather Forecast

Advertisements
Track Severe Weather on mobile